Carmen — SMGW — position and weather

sailwx.info

Track history (hours):
 
Tides and Currents Weather Stations Pressure Air Temp Water Temp Dewpoint Dewpoint Depression Visibility Wind Speed Wind Dir Waves Ship Positions

Carmen

Last reported at 2017-Dec-16 18:00 UTC. Time now 2017-Dec-16 22:34 UTC.
Position N 42°18' W 009°48'.

Length 231 m; draft 9.1 m.

Type: Cargo ship. MMSI: 266339000.

Wind from 050 at 17 knots

Barometer 1028.4 mb
Air temperature 12.1 ° C
Visibility: greater than 10.8 NM
Water temperature 15.2 ° C

Date/timePositionNaut miles runAvg speedWind from/ knotsBaromVisibWave heightAir tempDewpointWater temp
2017-Dec-16 18:00N 42°18' W 009°48'17015.9 050 / 171028.410.8 12.1 15.2
2017-Dec-16 07:18N 39°28' W 009°52'515.4
2017-Dec-16 07:00N 39°23' W 009°52'715.0
2017-Dec-16 06:30N 39°16' W 009°52'815.0
2017-Dec-16 06:00N 39°08' W 009°52'3184.5
2017-Dec-16 06:00N 39°06' W 009°54'511.1 020 / 271021.210.8 13.1 16.2
2017-Dec-16 05:30N 39°01' W 009°52'815.0
2017-Dec-16 05:00N 38°53' W 009°52'815.0
2017-Dec-16 04:30N 38°46' W 009°52'715.0
2017-Dec-16 04:00N 38°38' W 009°51'815.5
2017-Dec-16 03:30N 38°31' W 009°49'815.8
2017-Dec-16 03:00N 38°23' W 009°46'815.9
2017-Dec-16 02:30N 38°15' W 009°44'815.6
2017-Dec-16 02:00N 38°08' W 009°42'3316.4
2017-Dec-16 00:00N 37°36' W 009°30'21114.9 010 / 231019.0 5.4 13.5 17.9
2017-Dec-15 09:48N 35°58' W 005°36'515.4
2017-Dec-15 09:30N 35°60' W 005°31'714.4
2017-Dec-15 09:00N 36°02' W 005°22'714.1
2017-Dec-15 08:30N 36°03' W 005°14'4116.4
2017-Dec-15 06:00N 36°12' W 004°24'8814.6 270 / 271016.110.8 15.5 16.9
2017-Dec-15 00:00N 36°24' W 002°36'8815.5 240 / 211015.1 5.4 15.8 16.5
2017-Dec-14 18:19N 37°02' W 000°57'825.3
2017-Dec-14 18:00N 37°06' W 000°48'1 9.3 230 / 231017.510.8 15.3 16.9
2017-Dec-14 17:53N 37°06' W 000°49'616.5
2017-Dec-14 17:30N 37°09' W 000°42'8515.4
2017-Dec-14 12:00N 37°54' E 000°48'9716.2 250 / 251019.8 5.4 15.6 17.6
2017-Dec-14 06:00N 38°42' E 002°36'2616.3 250 / 191019.010.8 16.0 18.0
2017-Dec-14 04:23N 38°58' E 003°03'7316.7
2017-Dec-14 00:00N 39°36' E 004°24'10317.1 270 / 251020.210.8 15.2 17.5
2017-Dec-13 18:00N 40°48' E 006°00'9916.4 270 / 271020.810.8 13.8 14.7
2017-Dec-13 12:00N 42°00' E 007°30'9516.4 270 / 251020.2 5.4 11.7 15.0
2017-Dec-13 06:11N 43°05' E 009°05'316.2
2017-Dec-13 06:00N 43°06' E 009°09'816.1
2017-Dec-13 05:30N 43°09' E 009°19'816.4
2017-Dec-13 05:00N 43°12' E 009°29'917.0
2017-Dec-13 04:30N 43°15' E 009°41'816.9
2017-Dec-13 04:00N 43°17' E 009°52'816.6
2017-Dec-13 03:30N 43°21' E 010°01'917.3
2017-Dec-13 03:00N 43°28' E 010°09'713.3
2017-Dec-13 02:30N 43°32' E 010°16'3 5.3
2017-Dec-13 02:00N 43°34' E 010°18'0 0.9
2017-Dec-13 01:29N 43°35' E 010°18'0 0.0
2017-Dec-13 00:59N 43°35' E 010°18'0 0.0
2017-Dec-13 00:29N 43°35' E 010°18'0 0.0
2017-Dec-12 23:56N 43°35' E 010°18'0 0.0
2017-Dec-12 23:29N 43°35' E 010°18'0 0.0
2017-Dec-12 22:59N 43°35' E 010°18'0 0.0
2017-Dec-12 22:29N 43°35' E 010°18'0 0.0
2017-Dec-12 21:59N 43°35' E 010°18'0 0.0
2017-Dec-12 21:29N 43°35' E 010°18'0 0.0
2017-Dec-12 20:59N 43°35' E 010°18'0 0.0
2017-Dec-12 20:29N 43°35' E 010°18'0 0.0
2017-Dec-12 19:59N 43°35' E 010°18'0 0.0
2017-Dec-12 19:29N 43°35' E 010°18'0 0.0
2017-Dec-12 18:56N 43°35' E 010°18'0 0.0
2017-Dec-12 18:29N 43°35' E 010°18'0 0.0
2017-Dec-12 17:59N 43°35' E 010°18'0 0.0
2017-Dec-12 17:29N 43°35' E 010°18'0 0.0
2017-Dec-12 16:59N 43°35' E 010°18'0 0.0
2017-Dec-12 16:26N 43°35' E 010°18'0 0.0
2017-Dec-12 15:56N 43°35' E 010°18'0 0.0
2017-Dec-12 15:23N 43°35' E 010°18'0 0.0
2017-Dec-12 14:59N 43°35' E 010°18'0 0.0
2017-Dec-12 14:29N 43°35' E 010°18'0 0.0
2017-Dec-12 13:59N 43°35' E 010°18'0 0.0
2017-Dec-12 13:29N 43°35' E 010°18'0 0.0
2017-Dec-12 12:59N 43°35' E 010°18'0 0.0
2017-Dec-12 12:29N 43°35' E 010°18'0 0.0
2017-Dec-12 11:59N 43°35' E 010°18'0 0.0
2017-Dec-12 11:29N 43°35' E 010°18'0 0.0
2017-Dec-12 10:59N 43°35' E 010°18'0 0.0
2017-Dec-12 10:26N 43°35' E 010°18'0 0.0
2017-Dec-12 09:59N 43°35' E 010°18'0 0.4
2017-Dec-12 09:30N 43°35' E 010°18'2 5.0
2017-Dec-12 09:00N 43°32' E 010°17'4 8.6
2017-Dec-12 08:31N 43°28' E 010°15'1 2.8
2017-Dec-12 08:01N 43°27' E 010°16'1 2.0
2017-Dec-12 07:30N 43°26' E 010°15'1 1.4
2017-Dec-12 07:01N 43°26' E 010°15'1 1.8
2017-Dec-12 06:30N 43°25' E 010°14'1 1.9
2017-Dec-12 06:01N 43°25' E 010°13'1 2.4
2017-Dec-12 05:31N 43°24' E 010°13'1 2.4
2017-Dec-12 05:00N 43°23' E 010°11'1 2.0
2017-Dec-12 04:30N 43°23' E 010°10'1 1.4
2017-Dec-12 04:00N 43°23' E 010°10'3 5.8
2017-Dec-12 03:30N 43°25' E 010°14'1 2.3
2017-Dec-12 03:00N 43°26' E 010°15'1 1.8
2017-Dec-12 02:30N 43°25' E 010°14'0 0.7
2017-Dec-12 02:00N 43°25' E 010°13'1 2.0
2017-Dec-12 01:30N 43°25' E 010°13'1 2.3
2017-Dec-12 01:00N 43°23' E 010°12'1 2.2
2017-Dec-12 00:30N 43°22' E 010°12'1 2.4
2017-Dec-12 00:01N 43°21' E 010°12'1 2.8
2017-Dec-11 23:30N 43°22' E 010°13'4 7.2
2017-Dec-11 23:00N 43°25' E 010°10'1 2.9
2017-Dec-11 22:30N 43°24' E 010°08'2 3.5
2017-Dec-11 22:01N 43°22' E 010°10'2 3.6
2017-Dec-11 21:31N 43°21' E 010°11'2 3.2
2017-Dec-11 21:01N 43°22' E 010°12'3 5.8
2017-Dec-11 20:30N 43°25' E 010°11'1 2.1
2017-Dec-11 20:00N 43°25' E 010°12'2 3.3
2017-Dec-11 19:30N 43°23' E 010°13'2 3.3
2017-Dec-11 19:01N 43°24' E 010°12'1 2.6
2017-Dec-11 18:30N 43°23' E 010°12'1 2.9
2017-Dec-11 18:00N 43°22' E 010°13'2 3.2
2017-Dec-11 17:31N 43°23' E 010°14'3 6.5
2017-Dec-11 17:01N 43°25' E 010°12'2 3.7
2017-Dec-11 16:30N 43°27' E 010°10'1 2.7
2017-Dec-11 16:00N 43°25' E 010°10'1 2.9
2017-Dec-11 15:30N 43°24' E 010°11'2 3.2
2017-Dec-11 15:01N 43°23' E 010°12'1 2.9
2017-Dec-11 14:30N 43°21' E 010°13'3 5.4
2017-Dec-11 14:00N 43°24' E 010°14'3 6.9
2017-Dec-11 13:30N 43°27' E 010°11'1 2.8
2017-Dec-11 13:01N 43°26' E 010°10'1 2.8
2017-Dec-11 12:31N 43°24' E 010°11'1 2.4
2017-Dec-11 12:00N 43°23' E 010°12'1 2.9
2017-Dec-11 11:31N 43°22' E 010°12'1 2.4
2017-Dec-11 11:00N 43°22' E 010°14'3 6.3
2017-Dec-11 10:30N 43°26' E 010°13'1 1.8
2017-Dec-11 10:00N 43°25' E 010°13'2 3.2
2017-Dec-11 09:31N 43°23' E 010°14'1 3.0
2017-Dec-11 09:01N 43°24' E 010°15'1 1.7
2017-Dec-11 08:30N 43°24' E 010°15'1 2.5
2017-Dec-11 07:57N 43°22' E 010°15'2 4.7
2017-Dec-11 07:31N 43°24' E 010°15'1 2.1
2017-Dec-11 06:59N 43°24' E 010°14'1 3.1
2017-Dec-11 06:31N 43°22' E 010°13'2 3.4
2017-Dec-11 06:01N 43°24' E 010°11'1 1.6
2017-Dec-11 05:31N 43°23' E 010°11'1 2.5
2017-Dec-11 05:00N 43°22' E 010°12'2 4.9
2017-Dec-11 04:30N 43°24' E 010°13'3 5.1
2017-Dec-11 04:00N 43°26' E 010°12'1 2.0
2017-Dec-11 03:30N 43°25' E 010°11'1 1.1
2017-Dec-11 02:58N 43°25' E 010°10'1 1.7
2017-Dec-11 02:31N 43°24' E 010°10'1 1.9
2017-Dec-11 02:00N 43°23' E 010°11'1 1.8
2017-Dec-11 01:26N 43°22' E 010°11'1 1.8
2017-Dec-11 00:57N 43°21' E 010°11'1 3.2
2017-Dec-11 00:30N 43°22' E 010°12'3 6.4
2017-Dec-11 00:00N 43°25' E 010°10'1 1.2
2017-Dec-10 23:29N 43°25' E 010°10'1 1.7
2017-Dec-10 22:59N 43°24' E 010°11'1 1.8
2017-Dec-10 22:31N 43°23' E 010°11'1 2.1
2017-Dec-10 22:00N 43°22' E 010°11'2 3.1
2017-Dec-10 21:30N 43°24' E 010°12'0 0.6
2017-Dec-10 21:01N 43°24' E 010°11'1 1.7
2017-Dec-10 20:31N 43°23' E 010°11'1 2.1
2017-Dec-10 20:01N 43°23' E 010°12'1 1.8
2017-Dec-10 19:30N 43°22' E 010°12'1 1.4
2017-Dec-10 18:58N 43°21' E 010°12'3 6.0
2017-Dec-10 18:28N 43°24' E 010°12'0 0.6
2017-Dec-10 18:00N 43°24' E 010°13'1 2.6
2017-Dec-10 17:31N 43°23' E 010°13'1 1.4
2017-Dec-10 17:00N 43°23' E 010°14'1 1.6
2017-Dec-10 16:27N 43°22' E 010°13'1 2.8
2017-Dec-10 16:01N 43°21' E 010°13'1 1.5
2017-Dec-10 15:27N 43°22' E 010°12'3 5.8
2017-Dec-10 14:57N 43°24' E 010°11'1 1.8
2017-Dec-10 14:31N 43°24' E 010°11'1 2.6
2017-Dec-10 14:00N 43°22' E 010°12'1 1.6
2017-Dec-10 13:30N 43°23' E 010°13'2 4.9
2017-Dec-10 13:00N 43°25' E 010°12'2 4.7
2017-Dec-10 12:30N 43°26' E 010°09'1 2.2
2017-Dec-10 12:00N 43°25' E 010°09'1 1.3
2017-Dec-10 11:31N 43°25' E 010°09'1 1.9
2017-Dec-10 11:01N 43°24' E 010°10'1 1.7
2017-Dec-10 10:30N 43°23' E 010°11'1 1.1
2017-Dec-10 10:00N 43°23' E 010°11'3 5.6
2017-Dec-10 09:31N 43°26' E 010°13'0 0.6
2017-Dec-10 09:00N 43°26' E 010°13'1 1.6
2017-Dec-10 08:31N 43°25' E 010°12'1 1.3
2017-Dec-10 08:01N 43°26' E 010°12'1 1.7
2017-Dec-10 07:30N 43°25' E 010°12'1 1.0
2017-Dec-10 07:00N 43°24' E 010°12'3 6.1
2017-Dec-10 06:31N 43°27' E 010°15'3 5.8
2017-Dec-10 06:01N 43°30' E 010°13'612.8
2017-Dec-10 05:30N 43°25' E 010°07'713.4
2017-Dec-10 05:00N 43°20' E 010°01'714.9
2017-Dec-10 04:30N 43°15' E 009°53'815.9
2017-Dec-10 04:01N 43°11' E 009°44'815.8
2017-Dec-10 03:31N 43°04' E 009°39'2315.9
2017-Dec-10 02:02N 42°41' E 009°48'116.0
2017-Dec-10 02:00N 42°41' E 009°48'32715.7
2017-Dec-09 05:15N 38°52' E 014°56'415.9
2017-Dec-09 04:59N 38°49' E 014°59'816.0
2017-Dec-09 04:30N 38°44' E 015°07'816.4
2017-Dec-09 04:00N 38°38' E 015°15'816.7
2017-Dec-09 03:30N 38°33' E 015°23'917.1
2017-Dec-09 03:00N 38°27' E 015°31'816.9
2017-Dec-09 02:30N 38°22' E 015°39'713.2
2017-Dec-09 02:00N 38°16' E 015°41'714.1
2017-Dec-09 01:30N 38°09' E 015°37'815.9
2017-Dec-09 01:00N 38°01' E 015°36'815.3
2017-Dec-09 00:30N 37°54' E 015°39'815.2
2017-Dec-09 00:00N 37°50' E 015°47'916.0
2017-Dec-08 23:26N 37°47' E 015°58'5448999.8
2017-Dec-08 18:00N 23°06' E 119°54'5174459.1 020 / 351013.9 2.2 23.8 27.0
2017-Dec-08 06:43N 36°29' E 021°44'517.4
2017-Dec-08 06:26N 36°27' E 021°50'2217.1
2017-Dec-08 05:09N 36°22' E 022°17'517.2
2017-Dec-08 04:52N 36°20' E 022°23'716.9
2017-Dec-08 04:27N 36°21' E 022°31'817.6
2017-Dec-08 04:00N 36°23' E 022°41'917.5
2017-Dec-08 03:29N 36°25' E 022°52'817.0
2017-Dec-08 03:00N 36°25' E 023°02'917.4
2017-Dec-08 02:30N 36°24' E 023°12'917.6
2017-Dec-08 02:01N 36°29' E 023°21'917.7
2017-Dec-08 01:30N 36°35' E 023°30'917.5
2017-Dec-08 01:00N 36°41' E 023°38'917.8
2017-Dec-08 00:30N 36°49' E 023°43'917.5
2017-Dec-08 00:00N 36°55' E 023°49'917.6
2017-Dec-07 23:30N 37°03' E 023°56'917.7
2017-Dec-07 23:00N 37°10' E 024°02'917.7
2017-Dec-07 22:30N 37°17' E 024°09'917.5
2017-Dec-07 22:00N 37°24' E 024°15'917.3
2017-Dec-07 21:30N 37°31' E 024°22'917.4
2017-Dec-07 21:01N 37°38' E 024°28'917.3
2017-Dec-07 20:30N 37°46' E 024°32'917.8
2017-Dec-07 20:00N 37°54' E 024°36'2117.1
2017-Dec-07 18:46N 38°12' E 024°51'517.7
2017-Dec-07 18:30N 38°15' E 024°55'  
Track history (hours):
 
Tides and Currents Weather Stations Pressure Air Temp Water Temp Dewpoint Dewpoint Depression Visibility Wind Speed Wind Dir Waves Ship Positions

Carmen

Last reported at 2017-Dec-16 18:00 UTC. Time now 2017-Dec-16 22:34 UTC.
Position N 42°18' W 009°48'.

Length 231 m; draft 9.1 m.

Type: Cargo ship. MMSI: 266339000.

Wind from 050 at 17 knots

Barometer 1028.4 mb
Air temperature 12.1 ° C
Visibility: greater than 10.8 NM
Water temperature 15.2 ° C

Date/timePositionNaut miles runAvg speedWind from/ knotsBaromVisibWave heightAir tempDewpointWater temp
2017-Dec-16 18:00N 42°18' W 009°48'17015.9 050 / 171028.410.8 12.1 15.2
2017-Dec-16 07:18N 39°28' W 009°52'515.4
2017-Dec-16 07:00N 39°23' W 009°52'715.0
2017-Dec-16 06:30N 39°16' W 009°52'815.0
2017-Dec-16 06:00N 39°08' W 009°52'3184.5
2017-Dec-16 06:00N 39°06' W 009°54'511.1 020 / 271021.210.8 13.1 16.2
2017-Dec-16 05:30N 39°01' W 009°52'815.0
2017-Dec-16 05:00N 38°53' W 009°52'815.0
2017-Dec-16 04:30N 38°46' W 009°52'715.0
2017-Dec-16 04:00N 38°38' W 009°51'815.5
2017-Dec-16 03:30N 38°31' W 009°49'815.8
2017-Dec-16 03:00N 38°23' W 009°46'815.9
2017-Dec-16 02:30N 38°15' W 009°44'815.6
2017-Dec-16 02:00N 38°08' W 009°42'3316.4
2017-Dec-16 00:00N 37°36' W 009°30'21114.9 010 / 231019.0 5.4 13.5 17.9
2017-Dec-15 09:48N 35°58' W 005°36'515.4
2017-Dec-15 09:30N 35°60' W 005°31'714.4
2017-Dec-15 09:00N 36°02' W 005°22'714.1
2017-Dec-15 08:30N 36°03' W 005°14'4116.4
2017-Dec-15 06:00N 36°12' W 004°24'8814.6 270 / 271016.110.8 15.5 16.9
2017-Dec-15 00:00N 36°24' W 002°36'8815.5 240 / 211015.1 5.4 15.8 16.5
2017-Dec-14 18:19N 37°02' W 000°57'825.3
2017-Dec-14 18:00N 37°06' W 000°48'1 9.3 230 / 231017.510.8 15.3 16.9
2017-Dec-14 17:53N 37°06' W 000°49'616.5
2017-Dec-14 17:30N 37°09' W 000°42'8515.4
2017-Dec-14 12:00N 37°54' E 000°48'9716.2 250 / 251019.8 5.4 15.6 17.6
2017-Dec-14 06:00N 38°42' E 002°36'2616.3 250 / 191019.010.8 16.0 18.0
2017-Dec-14 04:23N 38°58' E 003°03'7316.7
2017-Dec-14 00:00N 39°36' E 004°24'10317.1 270 / 251020.210.8 15.2 17.5
2017-Dec-13 18:00N 40°48' E 006°00'9916.4 270 / 271020.810.8 13.8 14.7
2017-Dec-13 12:00N 42°00' E 007°30'9516.4 270 / 251020.2 5.4 11.7 15.0
2017-Dec-13 06:11N 43°05' E 009°05'316.2
2017-Dec-13 06:00N 43°06' E 009°09'816.1
2017-Dec-13 05:30N 43°09' E 009°19'816.4
2017-Dec-13 05:00N 43°12' E 009°29'917.0
2017-Dec-13 04:30N 43°15' E 009°41'816.9
2017-Dec-13 04:00N 43°17' E 009°52'816.6
2017-Dec-13 03:30N 43°21' E 010°01'917.3
2017-Dec-13 03:00N 43°28' E 010°09'713.3
2017-Dec-13 02:30N 43°32' E 010°16'3 5.3
2017-Dec-13 02:00N 43°34' E 010°18'0 0.9
2017-Dec-13 01:29N 43°35' E 010°18'0 0.0
2017-Dec-13 00:59N 43°35' E 010°18'0 0.0
2017-Dec-13 00:29N 43°35' E 010°18'0 0.0
2017-Dec-12 23:56N 43°35' E 010°18'0 0.0
2017-Dec-12 23:29N 43°35' E 010°18'0 0.0
2017-Dec-12 22:59N 43°35' E 010°18'0 0.0
2017-Dec-12 22:29N 43°35' E 010°18'0 0.0
2017-Dec-12 21:59N 43°35' E 010°18'0 0.0
2017-Dec-12 21:29N 43°35' E 010°18'0 0.0
2017-Dec-12 20:59N 43°35' E 010°18'0 0.0
2017-Dec-12 20:29N 43°35' E 010°18'0 0.0
2017-Dec-12 19:59N 43°35' E 010°18'0 0.0
2017-Dec-12 19:29N 43°35' E 010°18'0 0.0
2017-Dec-12 18:56N 43°35' E 010°18'0 0.0
2017-Dec-12 18:29N 43°35' E 010°18'0 0.0
2017-Dec-12 17:59N 43°35' E 010°18'0 0.0
2017-Dec-12 17:29N 43°35' E 010°18'0 0.0
2017-Dec-12 16:59N 43°35' E 010°18'0 0.0
2017-Dec-12 16:26N 43°35' E 010°18'0 0.0
2017-Dec-12 15:56N 43°35' E 010°18'0 0.0
2017-Dec-12 15:23N 43°35' E 010°18'0 0.0
2017-Dec-12 14:59N 43°35' E 010°18'0 0.0
2017-Dec-12 14:29N 43°35' E 010°18'0 0.0
2017-Dec-12 13:59N 43°35' E 010°18'0 0.0
2017-Dec-12 13:29N 43°35' E 010°18'0 0.0
2017-Dec-12 12:59N 43°35' E 010°18'0 0.0
2017-Dec-12 12:29N 43°35' E 010°18'0 0.0
2017-Dec-12 11:59N 43°35' E 010°18'0 0.0
2017-Dec-12 11:29N 43°35' E 010°18'0 0.0
2017-Dec-12 10:59N 43°35' E 010°18'0 0.0
2017-Dec-12 10:26N 43°35' E 010°18'0 0.0
2017-Dec-12 09:59N 43°35' E 010°18'0 0.4
2017-Dec-12 09:30N 43°35' E 010°18'2 5.0
2017-Dec-12 09:00N 43°32' E 010°17'4 8.6
2017-Dec-12 08:31N 43°28' E 010°15'1 2.8
2017-Dec-12 08:01N 43°27' E 010°16'1 2.0
2017-Dec-12 07:30N 43°26' E 010°15'1 1.4
2017-Dec-12 07:01N 43°26' E 010°15'1 1.8
2017-Dec-12 06:30N 43°25' E 010°14'1 1.9
2017-Dec-12 06:01N 43°25' E 010°13'1 2.4
2017-Dec-12 05:31N 43°24' E 010°13'1 2.4
2017-Dec-12 05:00N 43°23' E 010°11'1 2.0
2017-Dec-12 04:30N 43°23' E 010°10'1 1.4
2017-Dec-12 04:00N 43°23' E 010°10'3 5.8
2017-Dec-12 03:30N 43°25' E 010°14'1 2.3
2017-Dec-12 03:00N 43°26' E 010°15'1 1.8
2017-Dec-12 02:30N 43°25' E 010°14'0 0.7
2017-Dec-12 02:00N 43°25' E 010°13'1 2.0
2017-Dec-12 01:30N 43°25' E 010°13'1 2.3
2017-Dec-12 01:00N 43°23' E 010°12'1 2.2
2017-Dec-12 00:30N 43°22' E 010°12'1 2.4
2017-Dec-12 00:01N 43°21' E 010°12'1 2.8
2017-Dec-11 23:30N 43°22' E 010°13'4 7.2
2017-Dec-11 23:00N 43°25' E 010°10'1 2.9
2017-Dec-11 22:30N 43°24' E 010°08'2 3.5
2017-Dec-11 22:01N 43°22' E 010°10'2 3.6
2017-Dec-11 21:31N 43°21' E 010°11'2 3.2
2017-Dec-11 21:01N 43°22' E 010°12'3 5.8
2017-Dec-11 20:30N 43°25' E 010°11'1 2.1
2017-Dec-11 20:00N 43°25' E 010°12'2 3.3
2017-Dec-11 19:30N 43°23' E 010°13'2 3.3
2017-Dec-11 19:01N 43°24' E 010°12'1 2.6
2017-Dec-11 18:30N 43°23' E 010°12'1 2.9
2017-Dec-11 18:00N 43°22' E 010°13'2 3.2
2017-Dec-11 17:31N 43°23' E 010°14'3 6.5
2017-Dec-11 17:01N 43°25' E 010°12'2 3.7
2017-Dec-11 16:30N 43°27' E 010°10'1 2.7
2017-Dec-11 16:00N 43°25' E 010°10'1 2.9
2017-Dec-11 15:30N 43°24' E 010°11'2 3.2
2017-Dec-11 15:01N 43°23' E 010°12'1 2.9
2017-Dec-11 14:30N 43°21' E 010°13'3 5.4
2017-Dec-11 14:00N 43°24' E 010°14'3 6.9
2017-Dec-11 13:30N 43°27' E 010°11'1 2.8
2017-Dec-11 13:01N 43°26' E 010°10'1 2.8
2017-Dec-11 12:31N 43°24' E 010°11'1 2.4
2017-Dec-11 12:00N 43°23' E 010°12'1 2.9
2017-Dec-11 11:31N 43°22' E 010°12'1 2.4
2017-Dec-11 11:00N 43°22' E 010°14'3 6.3
2017-Dec-11 10:30N 43°26' E 010°13'1 1.8
2017-Dec-11 10:00N 43°25' E 010°13'2 3.2
2017-Dec-11 09:31N 43°23' E 010°14'1 3.0
2017-Dec-11 09:01N 43°24' E 010°15'1 1.7
2017-Dec-11 08:30N 43°24' E 010°15'1 2.5
2017-Dec-11 07:57N 43°22' E 010°15'2 4.7
2017-Dec-11 07:31N 43°24' E 010°15'1 2.1
2017-Dec-11 06:59N 43°24' E 010°14'1 3.1
2017-Dec-11 06:31N 43°22' E 010°13'2 3.4
2017-Dec-11 06:01N 43°24' E 010°11'1 1.6
2017-Dec-11 05:31N 43°23' E 010°11'1 2.5
2017-Dec-11 05:00N 43°22' E 010°12'2 4.9
2017-Dec-11 04:30N 43°24' E 010°13'3 5.1
2017-Dec-11 04:00N 43°26' E 010°12'1 2.0
2017-Dec-11 03:30N 43°25' E 010°11'1 1.1
2017-Dec-11 02:58N 43°25' E 010°10'1 1.7
2017-Dec-11 02:31N 43°24' E 010°10'1 1.9
2017-Dec-11 02:00N 43°23' E 010°11'1 1.8
2017-Dec-11 01:26N 43°22' E 010°11'1 1.8
2017-Dec-11 00:57N 43°21' E 010°11'1 3.2
2017-Dec-11 00:30N 43°22' E 010°12'3 6.4
2017-Dec-11 00:00N 43°25' E 010°10'1 1.2
2017-Dec-10 23:29N 43°25' E 010°10'1 1.7
2017-Dec-10 22:59N 43°24' E 010°11'1 1.8
2017-Dec-10 22:31N 43°23' E 010°11'1 2.1
2017-Dec-10 22:00N 43°22' E 010°11'2 3.1
2017-Dec-10 21:30N 43°24' E 010°12'0 0.6
2017-Dec-10 21:01N 43°24' E 010°11'1 1.7
2017-Dec-10 20:31N 43°23' E 010°11'1 2.1
2017-Dec-10 20:01N 43°23' E 010°12'1 1.8
2017-Dec-10 19:30N 43°22' E 010°12'1 1.4
2017-Dec-10 18:58N 43°21' E 010°12'3 6.0
2017-Dec-10 18:28N 43°24' E 010°12'0 0.6
2017-Dec-10 18:00N 43°24' E 010°13'1 2.6
2017-Dec-10 17:31N 43°23' E 010°13'1 1.4
2017-Dec-10 17:00N 43°23' E 010°14'1 1.6
2017-Dec-10 16:27N 43°22' E 010°13'1 2.8
2017-Dec-10 16:01N 43°21' E 010°13'1 1.5
2017-Dec-10 15:27N 43°22' E 010°12'3 5.8
2017-Dec-10 14:57N 43°24' E 010°11'1 1.8
2017-Dec-10 14:31N 43°24' E 010°11'1 2.6
2017-Dec-10 14:00N 43°22' E 010°12'1 1.6
2017-Dec-10 13:30N 43°23' E 010°13'2 4.9
2017-Dec-10 13:00N 43°25' E 010°12'2 4.7
2017-Dec-10 12:30N 43°26' E 010°09'1 2.2
2017-Dec-10 12:00N 43°25' E 010°09'1 1.3
2017-Dec-10 11:31N 43°25' E 010°09'1 1.9
2017-Dec-10 11:01N 43°24' E 010°10'1 1.7
2017-Dec-10 10:30N 43°23' E 010°11'1 1.1
2017-Dec-10 10:00N 43°23' E 010°11'3 5.6
2017-Dec-10 09:31N 43°26' E 010°13'0 0.6
2017-Dec-10 09:00N 43°26' E 010°13'1 1.6
2017-Dec-10 08:31N 43°25' E 010°12'1 1.3
2017-Dec-10 08:01N 43°26' E 010°12'1 1.7
2017-Dec-10 07:30N 43°25' E 010°12'1 1.0
2017-Dec-10 07:00N 43°24' E 010°12'3 6.1
2017-Dec-10 06:31N 43°27' E 010°15'3 5.8
2017-Dec-10 06:01N 43°30' E 010°13'612.8
2017-Dec-10 05:30N 43°25' E 010°07'713.4
2017-Dec-10 05:00N 43°20' E 010°01'714.9
2017-Dec-10 04:30N 43°15' E 009°53'815.9
2017-Dec-10 04:01N 43°11' E 009°44'815.8
2017-Dec-10 03:31N 43°04' E 009°39'2315.9
2017-Dec-10 02:02N 42°41' E 009°48'116.0
2017-Dec-10 02:00N 42°41' E 009°48'32715.7
2017-Dec-09 05:15N 38°52' E 014°56'415.9
2017-Dec-09 04:59N 38°49' E 014°59'816.0
2017-Dec-09 04:30N 38°44' E 015°07'816.4
2017-Dec-09 04:00N 38°38' E 015°15'816.7
2017-Dec-09 03:30N 38°33' E 015°23'917.1
2017-Dec-09 03:00N 38°27' E 015°31'816.9
2017-Dec-09 02:30N 38°22' E 015°39'713.2
2017-Dec-09 02:00N 38°16' E 015°41'714.1
2017-Dec-09 01:30N 38°09' E 015°37'815.9
2017-Dec-09 01:00N 38°01' E 015°36'815.3
2017-Dec-09 00:30N 37°54' E 015°39'815.2
2017-Dec-09 00:00N 37°50' E 015°47'916.0
2017-Dec-08 23:26N 37°47' E 015°58'5448999.8
2017-Dec-08 18:00N 23°06' E 119°54'5174459.1 020 / 351013.9 2.2 23.8 27.0
2017-Dec-08 06:43N 36°29' E 021°44'517.4
2017-Dec-08 06:26N 36°27' E 021°50'2217.1
2017-Dec-08 05:09N 36°22' E 022°17'517.2
2017-Dec-08 04:52N 36°20' E 022°23'716.9
2017-Dec-08 04:27N 36°21' E 022°31'817.6
2017-Dec-08 04:00N 36°23' E 022°41'917.5
2017-Dec-08 03:29N 36°25' E 022°52'817.0
2017-Dec-08 03:00N 36°25' E 023°02'917.4
2017-Dec-08 02:30N 36°24' E 023°12'917.6
2017-Dec-08 02:01N 36°29' E 023°21'917.7
2017-Dec-08 01:30N 36°35' E 023°30'917.5
2017-Dec-08 01:00N 36°41' E 023°38'917.8
2017-Dec-08 00:30N 36°49' E 023°43'917.5
2017-Dec-08 00:00N 36°55' E 023°49'917.6
2017-Dec-07 23:30N 37°03' E 023°56'917.7
2017-Dec-07 23:00N 37°10' E 024°02'917.7
2017-Dec-07 22:30N 37°17' E 024°09'917.5
2017-Dec-07 22:00N 37°24' E 024°15'917.3
2017-Dec-07 21:30N 37°31' E 024°22'917.4
2017-Dec-07 21:01N 37°38' E 024°28'917.3
2017-Dec-07 20:30N 37°46' E 024°32'917.8
2017-Dec-07 20:00N 37°54' E 024°36'2117.1
2017-Dec-07 18:46N 38°12' E 024°51'517.7
2017-Dec-07 18:30N 38°15' E 024°55'  

Dump ship's entire track history